Time;durP1;ratioP1;P1;durP2;ratioP2;P2;SDS_P1;SDS_P2;PMS_P1;PMS_P2;Temp;Humidity;BMP_temperature;BMP_pressure;BME280_temperature;BME280_humidity;BME280_pressure;Samples;Min_cycle;Max_cycle;Signal;HPM_P1;HPM_P2
2022/12/14 00:01:51;;;;;;;;;;;-3.10;99.90;;;;;;5095215;28;19924;-75
2022/12/14 00:04:17;;;;;;;;;;;-3.30;99.90;;;;;;5118539;27;19928;-75
2022/12/14 00:06:43;;;;;;;;;;;-3.20;99.90;;;;;;5091694;27;20359;-75
2022/12/14 00:09:08;;;;;;;;;;;-3.10;99.90;;;;;;5113398;27;20370;-76
2022/12/14 00:11:34;;;;;;;;;;;-3.10;99.90;;;;;;5126312;27;19978;-75
2022/12/14 00:14:01;;;;;;;;;;;-3.10;99.90;;;;;;5122500;27;20326;-74
2022/12/14 00:16:28;;;;;;;;;;;-2.20;99.90;;;;;;5089375;27;19930;-75
2022/12/14 00:18:55;;;;;;;;;;;-3.10;99.90;;;;;;5093790;28;20341;-75
2022/12/14 00:21:22;;;;;;;;;;;-3.20;99.90;;;;;;5116175;27;20026;-75
2022/12/14 00:23:50;;;;;;;;;;;-0.60;99.90;;;;;;5093757;28;19924;-75
2022/12/14 00:26:17;;;;;;;;;;;-3.10;99.90;;;;;;5103453;28;19923;-75
2022/12/14 00:28:43;;;;;;;;;;;-3.10;99.90;;;;;;5112257;27;19930;-75
2022/12/14 00:31:09;;;;;;;;;;;-0.60;99.90;;;;;;5103977;27;19983;-75
2022/12/14 00:33:35;;;;;;;;;;;-3.20;99.90;;;;;;5123333;27;20016;-75
2022/12/14 00:36:01;;;;;;;;;;;-3.20;99.90;;;;;;5125969;27;19930;-75
2022/12/14 00:38:26;;;;;;;;;;;-3.10;99.90;;;;;;5098174;27;19932;-75
2022/12/14 00:40:53;;;;;;;;;;;-3.20;99.90;;;;;;5087368;28;19938;-75
2022/12/14 00:43:18;;;;;;;;;;;-3.20;99.90;;;;;;5083055;28;19931;-75
2022/12/14 00:45:44;;;;;;;;;;;-3.30;99.90;;;;;;5081786;28;19928;-75
2022/12/14 00:48:10;;;;;;;;;;;-1.70;99.90;;;;;;5078472;28;19934;-74
2022/12/14 00:50:36;;;;;;;;;;;-3.20;99.90;;;;;;5064422;28;20755;-75
2022/12/14 00:53:01;;;;;;;;;;;-3.40;99.90;;;;;;5083712;28;19928;-75
2022/12/14 00:55:27;;;;;;;;;;;-3.30;99.90;;;;;;5090437;28;19928;-75
2022/12/14 00:57:52;;;;;;;;;;;-1.40;99.90;;;;;;5108664;28;19927;-75
2022/12/14 01:00:18;;;;;;;;;;;-3.40;99.90;;;;;;5102710;28;19969;-75
2022/12/14 01:02:43;;;;;;;;;;;-3.20;99.90;;;;;;5083406;28;19923;-75
2022/12/14 01:05:09;;;;;;;;;;;-3.60;99.90;;;;;;5108220;28;19928;-74
2022/12/14 01:07:35;;;;;;;;;;;-3.40;99.90;;;;;;5123687;28;19963;-74
2022/12/14 01:10:00;;;;;;;;;;;-3.40;99.90;;;;;;5109345;28;20442;-75
2022/12/14 01:12:26;;;;;;;;;;;-3.30;99.90;;;;;;5085910;28;19931;-75
2022/12/14 01:14:51;;;;;;;;;;;-3.30;99.90;;;;;;5112227;28;19973;-74
2022/12/14 01:17:17;;;;;;;;;;;-3.60;99.90;;;;;;5104568;28;20097;-75
2022/12/14 01:19:43;;;;;;;;;;;-3.50;99.90;;;;;;5122585;28;19924;-75
2022/12/14 01:22:09;;;;;;;;;;;-4.60;99.90;;;;;;5106735;28;20407;-75
2022/12/14 01:24:34;;;;;;;;;;;-3.60;99.90;;;;;;5106154;28;19923;-74
2022/12/14 01:27:00;;;;;;;;;;;-3.50;99.90;;;;;;5098136;28;19978;-75
2022/12/14 01:29:26;;;;;;;;;;;-3.50;99.90;;;;;;5084129;28;20362;-75
2022/12/14 01:31:52;;;;;;;;;;;-3.70;99.90;;;;;;5087657;28;19939;-74
2022/12/14 01:34:17;;;;;;;;;;;-3.80;99.90;;;;;;5071032;28;19930;-75
2022/12/14 01:36:43;;;;;;;;;;;-3.50;99.90;;;;;;5086910;28;20024;-75
2022/12/14 01:39:12;;;;;;;;;;;-3.80;99.90;;;;;;5071116;28;19932;-74
2022/12/14 01:41:40;;;;;;;;;;;-3.50;99.90;;;;;;5077777;28;19927;-75
2022/12/14 01:44:08;;;;;;;;;;;-0.90;99.90;;;;;;5079807;28;20323;-74
2022/12/14 01:46:45;;;;;;;;;;;-3.80;99.90;;;;;;5067164;28;19932;-75
2022/12/14 01:49:11;;;;;;;;;;;-2.20;99.90;;;;;;5063906;28;20062;-75
2022/12/14 01:51:38;;;;;;;;;;;-1.70;99.90;;;;;;5072167;28;19936;-74
2022/12/14 01:54:05;;;;;;;;;;;-3.80;99.90;;;;;;5084592;28;20156;-75
2022/12/14 01:56:32;;;;;;;;;;;-3.90;99.90;;;;;;5082278;28;19935;-73
2022/12/14 01:59:00;;;;;;;;;;;-3.80;99.90;;;;;;5083255;28;19932;-72
2022/12/14 02:01:26;;;;;;;;;;;-3.90;99.90;;;;;;5081302;28;20516;-75
2022/12/14 02:03:52;;;;;;;;;;;-4.10;99.90;;;;;;5063850;28;19932;-73
2022/12/14 02:06:29;;;;;;;;;;;-3.80;99.90;;;;;;5100548;27;20459;-73
2022/12/14 02:08:56;;;;;;;;;;;-3.80;99.90;;;;;;5081418;28;19989;-73
2022/12/14 02:11:41;;;;;;;;;;;-3.70;99.90;;;;;;5083053;28;20329;-73
2022/12/14 02:14:07;;;;;;;;;;;-2.60;99.90;;;;;;5045618;28;19935;-75
2022/12/14 02:16:33;;;;;;;;;;;-2.10;99.90;;;;;;5088997;28;19935;-73
2022/12/14 02:18:58;;;;;;;;;;;-4.00;99.90;;;;;;5089598;28;20000;-75
2022/12/14 02:21:37;;;;;;;;;;;-4.10;99.90;;;;;;5088228;28;20082;-73
2022/12/14 02:24:06;;;;;;;;;;;-4.10;99.90;;;;;;5091297;28;19984;-73
2022/12/14 02:26:34;;;;;;;;;;;-4.10;99.90;;;;;;5070168;27;19983;-73
2022/12/14 02:29:19;;;;;;;;;;;-4.20;99.90;;;;;;5087413;28;19927;-73
2022/12/14 02:32:00;;;;;;;;;;;-4.10;99.90;;;;;;5107366;27;19931;-73
2022/12/14 02:34:32;;;;;;;;;;;-4.30;99.90;;;;;;5088709;28;20052;-73
2022/12/14 02:37:15;;;;;;;;;;;-4.80;99.90;;;;;;5072557;28;20375;-73
2022/12/14 02:39:47;;;;;;;;;;;-4.50;99.90;;;;;;5072121;27;19927;-73
2022/12/14 02:42:14;;;;;;;;;;;-4.30;99.90;;;;;;5070909;28;21401;-73
2022/12/14 02:44:52;;;;;;;;;;;-2.40;99.90;;;;;;5081546;28;19988;-73
2022/12/14 02:47:17;;;;;;;;;;;-4.50;99.90;;;;;;5084099;28;19931;-72
2022/12/14 02:49:43;;;;;;;;;;;-4.40;99.90;;;;;;5082673;27;19935;-73
2022/12/14 02:52:15;;;;;;;;;;;-3.00;99.90;;;;;;5061051;28;19931;-73
2022/12/14 02:54:43;;;;;;;;;;;-4.20;99.90;;;;;;5084218;28;20391;-72
2022/12/14 02:57:29;;;;;;;;;;;-4.40;99.90;;;;;;5081269;28;19939;-73
2022/12/14 02:59:56;;;;;;;;;;;-4.50;99.90;;;;;;5097995;27;20072;-73
2022/12/14 03:02:22;;;;;;;;;;;-4.40;99.90;;;;;;5099939;27;19950;-73
2022/12/14 03:04:48;;;;;;;;;;;-4.50;99.90;;;;;;5085937;28;19939;-73
2022/12/14 03:07:28;;;;;;;;;;;-4.60;99.90;;;;;;5061447;28;19932;-73
2022/12/14 03:09:53;;;;;;;;;;;-4.60;99.90;;;;;;5078407;28;19931;-73
2022/12/14 03:12:19;;;;;;;;;;;-5.00;99.90;;;;;;5085414;28;19932;-73
2022/12/14 03:14:46;;;;;;;;;;;-5.10;99.90;;;;;;5084690;28;19934;-73
2022/12/14 03:17:15;;;;;;;;;;;-4.80;99.90;;;;;;5090556;28;19932;-73
2022/12/14 03:19:45;;;;;;;;;;;-4.70;99.90;;;;;;5087174;28;20388;-73
2022/12/14 03:22:14;;;;;;;;;;;-3.80;99.90;;;;;;5087611;28;19966;-74
2022/12/14 03:24:41;;;;;;;;;;;-4.70;99.90;;;;;;5088489;28;19927;-74
2022/12/14 03:27:11;;;;;;;;;;;-3.40;99.90;;;;;;5070379;28;19981;-73
2022/12/14 03:29:48;;;;;;;;;;;-3.70;99.90;;;;;;5073025;28;20433;-73
2022/12/14 03:32:17;;;;;;;;;;;-4.90;99.90;;;;;;5070395;28;19939;-73
2022/12/14 03:35:00;;;;;;;;;;;-4.70;99.90;;;;;;5084483;28;19935;-74
2022/12/14 03:37:33;;;;;;;;;;;-4.80;99.90;;;;;;5066137;28;20021;-73
2022/12/14 03:39:59;;;;;;;;;;;-5.10;99.90;;;;;;5084226;28;20186;-74
2022/12/14 03:42:28;;;;;;;;;;;-2.80;99.90;;;;;;5084502;27;20371;-73
2022/12/14 03:45:12;;;;;;;;;;;-2.80;99.90;;;;;;5082284;27;19928;-73
2022/12/14 03:47:52;;;;;;;;;;;-4.70;99.90;;;;;;5080936;28;19936;-73
2022/12/14 03:50:38;;;;;;;;;;;-4.90;99.90;;;;;;5082741;28;19934;-74
2022/12/14 03:53:09;;;;;;;;;;;-4.70;99.90;;;;;;5080062;27;19938;-73
2022/12/14 03:55:35;;;;;;;;;;;-4.80;99.90;;;;;;5082136;27;19927;-73
2022/12/14 03:58:17;;;;;;;;;;;-4.90;99.90;;;;;;5080347;28;19938;-73
2022/12/14 04:01:03;;;;;;;;;;;-4.80;99.90;;;;;;5081127;28;19932;-72
2022/12/14 04:03:38;;;;;;;;;;;-5.00;99.90;;;;;;5081767;27;20046;-73
2022/12/14 04:06:03;;;;;;;;;;;-3.40;99.90;;;;;;5072050;28;19931;-72
2022/12/14 04:08:46;;;;;;;;;;;-4.80;99.90;;;;;;5081577;28;20690;-73
2022/12/14 04:20:08;;;;;;;;;;;-4.60;99.90;;;;;;5079504;28;20022;-73
2022/12/14 04:22:38;;;;;;;;;;;-4.60;99.90;;;;;;5064150;28;19943;-75
2022/12/14 04:27:57;;;;;;;;;;;-2.60;99.90;;;;;;5082699;28;19936;-75
2022/12/14 04:30:23;;;;;;;;;;;-4.60;99.90;;;;;;5085631;28;20547;-73
2022/12/14 04:32:52;;;;;;;;;;;-4.70;99.90;;;;;;5096793;27;19927;-73
2022/12/14 04:35:21;;;;;;;;;;;-4.70;99.90;;;;;;5059717;28;19934;-73
2022/12/14 04:37:48;;;;;;;;;;;-4.70;99.90;;;;;;5061087;28;19928;-72
2022/12/14 04:40:16;;;;;;;;;;;-4.60;99.90;;;;;;5068286;28;19932;-75
2022/12/14 04:42:46;;;;;;;;;;;-5.00;99.90;;;;;;5065681;28;20034;-73
2022/12/14 04:45:18;;;;;;;;;;;-4.70;99.90;;;;;;5089697;28;19935;-75
2022/12/14 04:47:47;;;;;;;;;;;-4.60;99.90;;;;;;5085972;28;19976;-73
2022/12/14 04:50:18;;;;;;;;;;;-4.70;99.90;;;;;;5089106;28;19924;-73
2022/12/14 04:52:46;;;;;;;;;;;-4.60;99.90;;;;;;5104028;27;20014;-74
2022/12/14 04:55:14;;;;;;;;;;;-4.60;99.90;;;;;;5091843;27;19939;-74
2022/12/14 04:57:44;;;;;;;;;;;-4.60;99.90;;;;;;5068162;28;19931;-74
2022/12/14 05:00:10;;;;;;;;;;;-4.90;99.90;;;;;;5087957;28;19990;-74
2022/12/14 05:02:39;;;;;;;;;;;-4.90;99.90;;;;;;5087758;28;19923;-75
2022/12/14 05:05:17;;;;;;;;;;;-4.90;99.90;;;;;;5088116;28;19928;-74
2022/12/14 05:07:52;;;;;;;;;;;-4.90;99.90;;;;;;5063775;28;19932;-75
2022/12/14 05:10:23;;;;;;;;;;;-5.00;99.90;;;;;;5088652;28;19932;-75
2022/12/14 05:13:05;;;;;;;;;;;-5.10;99.90;;;;;;5062337;28;20004;-75
2022/12/14 05:15:38;;;;;;;;;;;-4.90;99.90;;;;;;5063149;28;19932;-76
2022/12/14 05:18:04;;;;;;;;;;;-5.00;99.90;;;;;;5080548;28;19934;-74
2022/12/14 05:20:29;;;;;;;;;;;-5.10;99.90;;;;;;5086976;28;19938;-75
2022/12/14 05:22:55;;;;;;;;;;;-5.00;99.90;;;;;;5086719;28;19932;-72
2022/12/14 05:25:21;;;;;;;;;;;-3.00;99.90;;;;;;5068312;28;20363;-75
2022/12/14 05:27:46;;;;;;;;;;;-5.30;99.90;;;;;;5067823;28;19928;-74
2022/12/14 05:30:12;;;;;;;;;;;-5.20;99.90;;;;;;5084240;28;19928;-73
2022/12/14 05:32:38;;;;;;;;;;;-5.20;99.90;;;;;;5084836;27;20376;-73
2022/12/14 05:35:04;;;;;;;;;;;-3.40;99.90;;;;;;5084907;27;19934;-74
2022/12/14 05:37:30;;;;;;;;;;;-5.30;99.90;;;;;;5082501;28;19928;-74
2022/12/14 05:39:55;;;;;;;;;;;-5.10;99.90;;;;;;5082072;28;19935;-74
2022/12/14 05:42:21;;;;;;;;;;;-5.40;99.90;;;;;;5083322;28;19936;-73
2022/12/14 05:44:46;;;;;;;;;;;-5.40;99.90;;;;;;5064575;28;19932;-73
2022/12/14 05:47:12;;;;;;;;;;;-5.40;99.90;;;;;;5084988;28;19928;-73
2022/12/14 05:49:38;;;;;;;;;;;-4.40;99.90;;;;;;5083209;28;20062;-73
2022/12/14 05:52:04;;;;;;;;;;;-5.50;99.90;;;;;;5066329;28;19932;-74
2022/12/14 05:54:29;;;;;;;;;;;-5.40;99.90;;;;;;5071536;28;20026;-74
2022/12/14 05:56:55;;;;;;;;;;;-5.30;99.90;;;;;;5081264;27;20474;-73
2022/12/14 05:59:20;;;;;;;;;;;-4.40;99.90;;;;;;5082866;28;19928;-73
2022/12/14 06:01:48;;;;;;;;;;;-5.40;99.90;;;;;;5082298;28;20120;-74
2022/12/14 06:04:14;;;;;;;;;;;-5.30;99.90;;;;;;5064780;28;21608;-75
2022/12/14 06:06:40;;;;;;;;;;;-5.40;99.90;;;;;;5083017;28;19943;-73
2022/12/14 06:09:06;;;;;;;;;;;-5.40;99.90;;;;;;5084668;28;20029;-74
2022/12/14 06:11:35;;;;;;;;;;;-5.40;99.90;;;;;;5080650;27;19935;-75
2022/12/14 06:14:00;;;;;;;;;;;-5.40;99.90;;;;;;5084885;28;19940;-74
2022/12/14 06:16:27;;;;;;;;;;;-3.80;99.90;;;;;;5081653;28;19939;-74
2022/12/14 06:18:53;;;;;;;;;;;-6.90;99.90;;;;;;5084881;27;19932;-72
2022/12/14 06:21:20;;;;;;;;;;;-4.50;99.90;;;;;;5091291;28;20018;-72
2022/12/14 06:23:46;;;;;;;;;;;-5.30;99.90;;;;;;5083798;28;19939;-72
2022/12/14 06:26:12;;;;;;;;;;;-5.30;99.90;;;;;;5085057;28;19939;-75
2022/12/14 06:28:38;;;;;;;;;;;-5.20;99.90;;;;;;5082841;28;19932;-73
2022/12/14 06:31:04;;;;;;;;;;;-5.40;99.90;;;;;;5080152;28;20342;-73
2022/12/14 06:33:31;;;;;;;;;;;-5.40;99.90;;;;;;5066181;28;19935;-73
2022/12/14 06:35:56;;;;;;;;;;;-5.60;99.90;;;;;;5082331;28;20452;-73
2022/12/14 06:38:22;;;;;;;;;;;-5.40;99.90;;;;;;5065286;28;19932;-73
2022/12/14 06:40:47;;;;;;;;;;;-5.20;99.90;;;;;;5090822;28;19934;-73
2022/12/14 06:43:13;;;;;;;;;;;-5.30;99.90;;;;;;5088657;28;20453;-73
2022/12/14 06:45:39;;;;;;;;;;;-5.50;99.90;;;;;;5089373;28;19931;-73
2022/12/14 06:48:04;;;;;;;;;;;-5.40;99.90;;;;;;5097394;27;19927;-72
2022/12/14 06:50:30;;;;;;;;;;;-5.40;99.90;;;;;;5129027;27;19968;-73
2022/12/14 06:52:55;;;;;;;;;;;-5.60;99.90;;;;;;5121065;27;19927;-73
2022/12/14 06:55:24;;;;;;;;;;;-5.30;99.90;;;;;;5121661;27;19932;-73
2022/12/14 06:57:51;;;;;;;;;;;-5.50;99.90;;;;;;5117964;27;19931;-73
2022/12/14 07:00:20;;;;;;;;;;;-5.40;99.90;;;;;;5122767;27;19928;-74
2022/12/14 07:02:45;;;;;;;;;;;-5.60;99.90;;;;;;5126313;27;19928;-72
2022/12/14 07:05:12;;;;;;;;;;;-5.60;99.90;;;;;;5089640;28;19954;-73
2022/12/14 07:07:37;;;;;;;;;;;-6.10;99.90;;;;;;5105633;27;20375;-73
2022/12/14 07:10:03;;;;;;;;;;;-5.70;99.90;;;;;;5119806;27;19923;-73
2022/12/14 07:12:29;;;;;;;;;;;-5.60;99.90;;;;;;5103855;27;19923;-72
2022/12/14 07:14:54;;;;;;;;;;;-5.60;99.90;;;;;;5099563;27;19938;-73
2022/12/14 07:17:20;;;;;;;;;;;-5.60;99.90;;;;;;5117208;27;19928;-73
2022/12/14 07:19:46;;;;;;;;;;;-5.50;99.90;;;;;;5084054;28;19946;-73
2022/12/14 07:22:12;;;;;;;;;;;-5.50;99.90;;;;;;5102660;27;19928;-73
2022/12/14 07:24:38;;;;;;;;;;;-5.50;99.90;;;;;;5102823;27;19934;-73
2022/12/14 07:27:04;;;;;;;;;;;-5.50;99.90;;;;;;5081868;27;19932;-73
2022/12/14 07:29:29;;;;;;;;;;;-5.60;99.90;;;;;;5083047;28;20040;-73
2022/12/14 07:31:55;;;;;;;;;;;-5.80;99.90;;;;;;5099518;28;19955;-73
2022/12/14 07:34:20;;;;;;;;;;;-5.70;99.90;;;;;;5093714;27;20474;-73
2022/12/14 07:36:48;;;;;;;;;;;-5.70;99.90;;;;;;5105879;27;20014;-73
2022/12/14 07:39:13;;;;;;;;;;;-5.70;99.90;;;;;;5112446;27;19946;-73
2022/12/14 07:41:39;;;;;;;;;;;-5.20;99.90;;;;;;5084655;28;20386;-73
2022/12/14 07:44:05;;;;;;;;;;;-5.60;99.90;;;;;;5105160;27;20390;-73
2022/12/14 07:46:30;;;;;;;;;;;-5.60;99.90;;;;;;5114820;27;19931;-73
2022/12/14 07:48:57;;;;;;;;;;;-5.70;99.90;;;;;;5107721;27;20416;-73
2022/12/14 07:51:26;;;;;;;;;;;-5.40;99.90;;;;;;5113315;27;20404;-73
2022/12/14 07:53:52;;;;;;;;;;;-5.60;99.90;;;;;;5097540;27;19927;-73
2022/12/14 07:56:22;;;;;;;;;;;-5.70;99.90;;;;;;5107599;28;20631;-75
2022/12/14 07:58:48;;;;;;;;;;;-5.60;99.90;;;;;;5103252;27;19924;-75
2022/12/14 08:01:18;;;;;;;;;;;-5.50;99.90;;;;;;5100652;27;19973;-76
2022/12/14 08:03:45;;;;;;;;;;;-5.60;99.90;;;;;;5102155;27;19947;-75
2022/12/14 08:06:11;;;;;;;;;;;-5.70;99.90;;;;;;5115878;27;19924;-75
2022/12/14 08:08:37;;;;;;;;;;;-5.60;99.90;;;;;;5108852;27;20022;-75
2022/12/14 08:11:03;;;;;;;;;;;-5.60;99.90;;;;;;4729694;28;9999877;-78
2022/12/14 08:13:29;;;;;;;;;;;-5.60;99.90;;;;;;5080494;28;20337;-75
2022/12/14 08:15:55;;;;;;;;;;;-5.70;99.90;;;;;;5097186;27;19924;-74
2022/12/14 08:18:21;;;;;;;;;;;-5.80;99.90;;;;;;5106351;27;19934;-77
2022/12/14 08:20:50;;;;;;;;;;;-4.50;99.90;;;;;;5091668;27;19935;-74
2022/12/14 08:23:17;;;;;;;;;;;-5.60;99.90;;;;;;5116895;27;20437;-76
2022/12/14 08:25:42;;;;;;;;;;;-5.60;99.90;;;;;;5121810;27;19924;-75
2022/12/14 08:28:08;;;;;;;;;;;-5.30;99.90;;;;;;5097553;28;19934;-75
2022/12/14 08:30:38;;;;;;;;;;;-5.80;99.90;;;;;;5103412;27;20375;-76
2022/12/14 08:33:03;;;;;;;;;;;-5.30;99.90;;;;;;5102223;27;20021;-74
2022/12/14 08:35:31;;;;;;;;;;;-5.70;99.90;;;;;;5108967;27;20022;-75
2022/12/14 08:37:56;;;;;;;;;;;-5.60;99.90;;;;;;5110554;27;20411;-74
2022/12/14 08:40:22;;;;;;;;;;;-5.60;99.90;;;;;;5124371;27;20037;-75
2022/12/14 08:42:48;;;;;;;;;;;-5.50;99.90;;;;;;5082135;27;20048;-74
2022/12/14 08:45:14;;;;;;;;;;;-3.30;99.90;;;;;;5098660;28;19971;-75
2022/12/14 08:47:39;;;;;;;;;;;-5.60;99.90;;;;;;5104364;27;19974;-75
2022/12/14 08:50:05;;;;;;;;;;;-4.30;99.90;;;;;;5114337;27;19924;-75
2022/12/14 08:52:31;;;;;;;;;;;-5.50;99.90;;;;;;5110805;27;19919;-75
2022/12/14 08:54:57;;;;;;;;;;;-5.50;99.90;;;;;;5108574;27;19931;-75
2022/12/14 08:57:23;;;;;;;;;;;-4.30;99.90;;;;;;5089165;28;19927;-75
2022/12/14 08:59:48;;;;;;;;;;;-5.60;99.90;;;;;;5116443;28;19924;-75
2022/12/14 09:02:14;;;;;;;;;;;-5.20;99.90;;;;;;5095726;28;19935;-74
2022/12/14 09:04:39;;;;;;;;;;;-5.40;99.90;;;;;;5080503;28;19932;-74
2022/12/14 09:07:05;;;;;;;;;;;-4.40;99.90;;;;;;5110738;28;19970;-75
2022/12/14 09:09:33;;;;;;;;;;;-5.40;99.90;;;;;;5110674;27;20397;-72
2022/12/14 09:12:02;;;;;;;;;;;-5.40;99.90;;;;;;5084122;28;20388;-75
2022/12/14 09:14:28;;;;;;;;;;;-4.30;99.90;;;;;;5080417;28;19931;-75
2022/12/14 09:16:53;;;;;;;;;;;-5.20;99.90;;;;;;5118717;28;19919;-74
2022/12/14 09:19:19;;;;;;;;;;;-5.50;99.90;;;;;;5080728;28;19924;-75
2022/12/14 09:21:44;;;;;;;;;;;-5.10;99.90;;;;;;5106783;28;20400;-75
2022/12/14 09:24:10;;;;;;;;;;;-5.50;99.90;;;;;;5121226;28;19927;-75
2022/12/14 09:26:36;;;;;;;;;;;-5.70;99.90;;;;;;5122086;27;19924;-75
2022/12/14 09:29:01;;;;;;;;;;;-5.40;99.90;;;;;;5109015;28;19932;-75
2022/12/14 09:31:27;;;;;;;;;;;-5.00;99.90;;;;;;5109448;28;19931;-75
2022/12/14 09:33:53;;;;;;;;;;;-5.20;99.90;;;;;;5108433;28;19930;-75
2022/12/14 09:36:20;;;;;;;;;;;-5.10;99.90;;;;;;5101676;28;20006;-75
2022/12/14 09:38:46;;;;;;;;;;;-3.20;99.90;;;;;;5104724;28;20412;-74
2022/12/14 09:41:30;;;;;;;;;;;-5.30;99.90;;;;;;5101236;28;19975;-74
2022/12/14 09:44:16;;;;;;;;;;;-5.00;99.90;;;;;;5107170;28;19923;-74
2022/12/14 09:46:48;;;;;;;;;;;-3.80;99.90;;;;;;5101658;28;20385;-74
2022/12/14 09:49:24;;;;;;;;;;;-5.10;99.90;;;;;;5109686;28;20379;-74
2022/12/14 09:51:50;;;;;;;;;;;-5.10;99.90;;;;;;5095229;28;20405;-76
2022/12/14 09:54:17;;;;;;;;;;;-4.90;99.90;;;;;;5086291;28;19919;-75
2022/12/14 09:56:43;;;;;;;;;;;-4.70;99.90;;;;;;5104936;28;19957;-75
2022/12/14 09:59:13;;;;;;;;;;;-4.60;99.90;;;;;;5084099;28;19931;-74
2022/12/14 10:01:44;;;;;;;;;;;-4.80;99.90;;;;;;5099349;28;19919;-75
2022/12/14 10:04:29;;;;;;;;;;;-4.60;99.90;;;;;;5102804;28;19928;-75
2022/12/14 10:07:01;;;;;;;;;;;-4.50;99.90;;;;;;5104268;27;19928;-76
2022/12/14 10:09:33;;;;;;;;;;;-4.50;99.90;;;;;;5098974;27;19925;-75
2022/12/14 10:12:01;;;;;;;;;;;-4.40;99.90;;;;;;5107866;27;19938;-73
2022/12/14 10:14:30;;;;;;;;;;;-4.30;99.90;;;;;;5104614;27;20387;-75
2022/12/14 10:17:05;;;;;;;;;;;-4.50;99.90;;;;;;5083808;27;19928;-75
2022/12/14 10:19:33;;;;;;;;;;;-4.20;99.90;;;;;;5120986;27;19923;-75
2022/12/14 10:22:01;;;;;;;;;;;-4.20;99.90;;;;;;5096709;27;19924;-75
2022/12/14 10:24:32;;;;;;;;;;;-4.20;99.90;;;;;;5083538;27;20449;-75
2022/12/14 10:26:58;;;;;;;;;;;-4.10;99.90;;;;;;5092082;27;19957;-73
2022/12/14 10:29:27;;;;;;;;;;;-4.00;99.90;;;;;;5099158;27;19936;-75
2022/12/14 10:32:05;;;;;;;;;;;-3.90;99.90;;;;;;5105288;27;19924;-75
2022/12/14 10:34:31;;;;;;;;;;;-4.00;99.90;;;;;;5082288;27;20418;-74
2022/12/14 10:37:09;;;;;;;;;;;-4.00;99.90;;;;;;5110662;27;19928;-74
2022/12/14 10:39:53;;;;;;;;;;;-4.10;99.90;;;;;;5087320;28;19928;-74
2022/12/14 10:42:35;;;;;;;;;;;-3.80;99.90;;;;;;5096132;28;20379;-74
2022/12/14 10:45:07;;;;;;;;;;;-3.80;99.90;;;;;;5096360;27;19924;-74
2022/12/14 10:47:32;;;;;;;;;;;-3.60;99.90;;;;;;5103654;27;19931;-73
2022/12/14 10:50:13;;;;;;;;;;;-3.60;99.90;;;;;;5091344;28;20025;-76
2022/12/14 10:52:40;;;;;;;;;;;-3.70;99.90;;;;;;5103464;28;19969;-74
2022/12/14 10:55:14;;;;;;;;;;;-3.50;99.90;;;;;;5085506;27;20371;-74
2022/12/14 10:57:40;;;;;;;;;;;-3.60;99.90;;;;;;5095918;27;19924;-74
2022/12/14 11:00:13;;;;;;;;;;;-3.60;99.90;;;;;;5086437;27;19927;-74
2022/12/14 11:02:41;;;;;;;;;;;-3.30;99.90;;;;;;5099263;28;19932;-73
2022/12/14 11:05:19;;;;;;;;;;;-3.50;99.90;;;;;;5083832;27;20372;-74
2022/12/14 11:07:48;;;;;;;;;;;-3.40;99.90;;;;;;5125964;27;19935;-74
2022/12/14 11:10:18;;;;;;;;;;;-3.30;99.90;;;;;;5082239;28;19927;-75
2022/12/14 11:13:04;;;;;;;;;;;-3.20;99.90;;;;;;5084011;28;20022;-74
2022/12/14 11:15:40;;;;;;;;;;;-3.20;99.90;;;;;;5100567;27;19931;-74
2022/12/14 11:18:06;;;;;;;;;;;-3.10;99.90;;;;;;5104903;27;19981;-73
2022/12/14 11:20:32;;;;;;;;;;;-2.90;99.90;;;;;;5100470;27;19958;-74
2022/12/14 11:23:05;;;;;;;;;;;-3.10;99.90;;;;;;5105577;27;20399;-75
2022/12/14 11:25:38;;;;;;;;;;;-3.50;99.90;;;;;;5078555;28;19949;-75
2022/12/14 11:28:15;;;;;;;;;;;-2.90;99.90;;;;;;5103229;27;20391;-74
2022/12/14 11:30:51;;;;;;;;;;;-2.90;99.90;;;;;;5092718;28;20368;-75
2022/12/14 11:33:16;;;;;;;;;;;-2.90;99.90;;;;;;5099667;27;19932;-75
2022/12/14 11:35:48;;;;;;;;;;;-2.90;99.90;;;;;;5084911;28;20459;-76
2022/12/14 11:38:14;;;;;;;;;;;-2.80;99.90;;;;;;5099236;27;19927;-74
2022/12/14 11:40:40;;;;;;;;;;;-3.00;99.90;;;;;;5084652;28;19968;-74
2022/12/14 11:43:11;;;;;;;;;;;-2.80;99.90;;;;;;5097999;27;19951;-75
2022/12/14 11:45:37;;;;;;;;;;;-2.60;99.90;;;;;;5100471;27;19986;-74
2022/12/14 11:48:09;;;;;;;;;;;-2.60;99.90;;;;;;5106453;27;19931;-74
2022/12/14 11:50:35;;;;;;;;;;;-2.50;99.90;;;;;;5101572;27;20486;-74
2022/12/14 12:13:33;;;;;;;25.25;15.57;;;-2.00;99.90;;;;;;5104071;27;20172;-74
2022/12/14 12:16:13;;;;;;;26.02;15.15;;;-2.10;99.90;;;;;;5089795;28;20138;-75
2022/12/14 12:18:54;;;;;;;47.55;16.63;;;-2.10;99.90;;;;;;5086610;28;20113;-74
2022/12/14 12:21:26;;;;;;;25.13;13.43;;;-2.10;99.90;;;;;;5117765;27;20852;-76
2022/12/14 12:24:10;;;;;;;20.70;12.20;;;-1.70;99.90;;;;;;5090632;28;20052;-74
2022/12/14 12:26:42;;;;;;;20.55;11.70;;;-2.00;99.90;;;;;;5075559;28;20040;-74
2022/12/14 12:29:30;;;;;;;24.58;13.82;;;-2.00;99.90;;;;;;5083630;28;20724;-75
2022/12/14 12:32:31;;;;;;;28.88;16.75;;;-2.20;99.90;;;;;;5070680;28;20459;-74
2022/12/14 12:35:06;;;;;;;25.83;14.85;;;-2.00;99.90;;;;;;5087788;28;20036;-77
2022/12/14 12:37:34;;;;;;;;;;;-2.00;99.90;;;;;;5088082;28;20114;-75
2022/12/14 12:40:30;;;;;;;24.38;14.18;;;-2.00;99.90;;;;;;5067365;28;20294;-75
2022/12/14 12:43:07;;;;;;;26.70;14.45;;;-2.00;99.90;;;;;;5128385;27;20047;-73
2022/12/14 12:45:50;;;;;;;22.50;12.73;;;-1.90;99.90;;;;;;5085715;28;20046;-74
2022/12/14 12:48:25;;;;;;;26.42;14.13;;;-1.90;99.90;;;;;;5066172;28;20094;-73
2022/12/14 12:50:56;;;;;;;24.17;13.63;;;-1.90;99.90;;;;;;5087448;28;20049;-75
2022/12/14 12:53:34;;;;;;;24.95;13.02;;;-1.90;99.90;;;;;;5100229;28;20040;-75
2022/12/14 12:56:11;;;;;;;19.42;12.75;;;-2.00;99.90;;;;;;5086743;28;20040;-74
2022/12/14 12:58:39;;;;;;;20.65;12.38;;;-2.10;99.90;;;;;;5089340;28;20079;-74
2022/12/14 13:01:32;;;;;;;24.60;13.05;;;-2.00;99.90;;;;;;5084701;28;20052;-76
2022/12/14 13:04:04;;;;;;;22.27;12.60;;;-2.00;99.90;;;;;;5101979;28;20040;-76
2022/12/14 13:06:49;;;;;;;19.20;11.02;;;-1.90;99.90;;;;;;5119253;27;20067;-76
2022/12/14 13:09:44;;;;;;;22.45;12.07;;;-1.80;99.90;;;;;;5084260;28;20048;-74
2022/12/14 13:12:34;;;;;;;25.98;12.75;;;-1.80;99.90;;;;;;5112419;27;20128;-74
2022/12/14 13:15:02;;;;;;;22.30;12.20;;;-1.70;99.90;;;;;;5069958;28;21616;-75
2022/12/14 13:17:44;;;;;;;24.10;13.70;;;-1.70;99.90;;;;;;5111662;27;20032;-74
2022/12/14 13:20:23;;;;;;;23.02;13.32;;;-1.70;99.90;;;;;;5051126;28;20044;-74
2022/12/14 13:22:50;;;;;;;23.05;11.93;;;-1.70;99.90;;;;;;5069690;28;20079;-74
2022/12/14 13:25:34;;;;;;;23.35;12.45;;;-1.70;99.90;;;;;;5069195;28;20055;-74
2022/12/14 13:28:18;;;;;;;22.33;12.32;;;-1.60;99.90;;;;;;5069055;28;20105;-74
2022/12/14 13:31:08;;;;;;;20.30;12.02;;;-1.70;99.90;;;;;;5066786;28;20049;-74
2022/12/14 13:34:02;;;;;;;23.38;12.30;;;-1.60;99.90;;;;;;5063734;28;20048;-74
2022/12/14 13:36:51;;;;;;;21.58;12.48;;;-1.70;99.90;;;;;;5070673;28;20037;-74
2022/12/14 13:39:36;;;;;;;27.20;15.32;;;-1.70;99.90;;;;;;5037006;28;20040;-74
2022/12/14 13:42:25;;;;;;;28.80;16.08;;;-1.70;99.90;;;;;;5052730;28;20052;-74
2022/12/14 13:45:03;;;;;;;19.73;12.93;;;-1.80;99.90;;;;;;5069570;28;20083;-72
2022/12/14 13:47:39;;;;;;;253.77;29.35;;;-1.50;99.90;;;;;;5073044;28;20036;-77
2022/12/14 13:50:15;;;;;;;50.08;14.10;;;-1.40;99.90;;;;;;5067974;28;20040;-73
2022/12/14 13:52:47;;;;;;;26.88;11.93;;;-1.30;99.90;;;;;;5058656;28;20132;-72
2022/12/14 13:55:28;;;;;;;59.35;16.05;;;-1.20;99.90;;;;;;5069361;28;20114;-76
2022/12/14 13:58:11;;;;;;;26.17;13.40;;;-1.20;99.90;;;;;;5068956;28;20044;-74
2022/12/14 14:00:43;;;;;;;28.60;14.10;;;-1.30;99.90;;;;;;5065492;28;20064;-73
2022/12/14 14:03:34;;;;;;;19.55;12.68;;;-1.40;99.90;;;;;;5061685;28;20041;-73
2022/12/14 14:06:36;;;;;;;24.08;14.05;;;-1.30;99.90;;;;;;5067943;28;20429;-74
2022/12/14 14:09:41;;;;;;;33.75;19.80;;;-1.30;99.90;;;;;;5061874;28;20548;-73
2022/12/14 14:12:30;;;;;;;145.07;24.92;;;-1.30;99.90;;;;;;5061413;28;20190;-77
2022/12/14 14:15:01;;;;;;;38.67;15.95;;;-1.40;99.90;;;;;;5070527;28;20075;-76
2022/12/14 14:17:38;;;;;;;31.38;14.75;;;-1.50;99.90;;;;;;5076180;28;20033;-74
2022/12/14 14:20:35;;;;;;;22.95;13.48;;;-1.30;99.90;;;;;;5069891;28;20050;-74
2022/12/14 14:23:13;;;;;;;335.08;35.85;;;-1.30;99.90;;;;;;5066741;28;20080;-75
2022/12/14 14:25:45;;;;;;;22.08;13.98;;;-1.20;99.90;;;;;;5072487;28;20576;-75
2022/12/14 14:28:12;;;;;;;27.77;15.25;;;-1.20;99.90;;;;;;5053694;28;20119;-75
2022/12/14 14:30:56;;;;;;;26.25;15.02;;;-1.20;99.90;;;;;;5045061;28;20055;-74
2022/12/14 14:33:36;;;;;;;22.25;13.05;;;-1.30;99.90;;;;;;5066769;28;20453;-73
2022/12/14 14:36:29;;;;;;;25.80;15.07;;;-1.40;99.90;;;;;;5068195;28;20052;-75
2022/12/14 14:38:55;;;;;;;25.35;14.25;;;-0.80;99.90;;;;;;5043441;28;20048;-74
2022/12/14 14:41:25;;;;;;;23.25;14.18;;;-1.50;99.90;;;;;;5058126;28;20040;-75
2022/12/14 14:44:00;;;;;;;22.40;13.93;;;0.30;99.90;;;;;;5070312;28;20495;-75
2022/12/14 14:46:46;;;;;;;23.08;14.15;;;-1.60;99.90;;;;;;5070491;28;20152;-73
2022/12/14 14:49:26;;;;;;;24.23;13.40;;;-2.10;99.90;;;;;;5067494;28;20052;-73